• Join FlightAware (Why Join?)
  • Login
  • US Flag 
06:56PM EDT


 

Airport Tracker/Info


-or-


 

Live Flight TrackerFlight Track Log ✈ SWA2975 ✈ 28-Jun-2013 ✈ KDEN - KSLC

Flight Track Log - Related Links

Times and Time Zones

All times are in EDT time to prevent confusion due to time zone crossing. See the SWA2975 flight status page for this flight to view local times or setup timezone preferences in your user account.

Time Position Orientation Groundspeed Altitude Reporting Facility
EDT Latitude Longitude Course Direction KTS MPH feet Rate Location/Type
04:05PM 39.8650 -104.6810 270° West 20 23  Level FlightAware
04:05PM 39.8640 -104.6830 237° Southwest 15 17 600 Level FlightAware
04:07PM 39.8640 -104.6840 270° West 26 30 660 Level FlightAware
04:07PM 39.8630 -104.6840 180° South 32 37 840 Level FlightAware
04:07PM 39.8620 -104.6840 180° South 15 17 840 Level FlightAware
04:08PM 39.8600 -104.6840 180° South 19 22 900 Level FlightAware
04:08PM 39.8570 -104.6840 180° South 19 22 960 Level FlightAware
04:09PM 39.8550 -104.6840 180° South 21 24 1,080 Level FlightAware
04:09PM 39.8520 -104.6840 180° South 23 26 1,140 Level FlightAware
04:10PM 39.8490 -104.6840 180° South 20 23 1,320 Level FlightAware
04:12PM 39.8772 -104.9524 276° West  Level FlightAware Approximate
04:13PM 39.8880 -105.0933 276° West  Level FlightAware Approximate
04:14PM 39.8988 -105.2343 276° West  Level FlightAware Approximate
04:14PM 39.8410 -104.7370 276° West 184 212 5,900  Level FlightAware
04:14PM 39.8450 -104.7660 280° West 210 242 6,600 1,560 Climbing FlightAware
04:14PM 39.8580 -104.7940 301° West 236 272 7,200 1,860 Climbing FlightAware
04:15PM 39.8900 -104.8610 302° West 274 315 9,000 2,160 Climbing FlightAware
04:16PM 39.9020 -104.9430 281° West 301 346 10,800 2,640 Climbing FlightAware
04:17PM 39.9090 -105.0190 277° West 299 344 13,000 3,000 Climbing FlightAware
04:18PM 39.9170 -105.0980 278° West 303 349 15,100 2,700 Climbing FlightAware
04:18PM 39.9280 -105.1730 281° West 310 357 16,900 2,580 Climbing FlightAware
04:19PM 39.9450 -105.2430 288° West 318 366 18,600 2,460 Climbing FlightAware
04:20PM 39.9770 -105.3720 288° West 330 380 21,400 1,980 Climbing FlightAware
04:21PM 40.0060 -105.4920 288° West 347 399 23,000 1,620 Climbing FlightAware
04:22PM 40.0240 -105.5730 286° West 352 405 24,200 1,920 Climbing FlightAware
04:22PM 40.0430 -105.6460 289° West 353 406 25,500 1,980 Climbing FlightAware
04:23PM 40.0780 -105.7500 294° West 358 412 27,300 2,100 Climbing FlightAware
04:24PM 40.0900 -105.8580 278° West 358 412 29,100 2,040 Climbing FlightAware
04:25PM 40.0950 -105.9360 275° West 358 412 30,300 1,380 Climbing FlightAware
04:26PM 40.0930 -106.0930 269° West 358 412 31,700 720 Climbing FlightAware
04:27PM 40.0920 -106.2190 269° West 407 468 31,900 180 Climbing FlightAware
04:28PM 40.0910 -106.3270 269° West 434 499 32,000 600 Climbing FlightAware
04:28PM 40.0900 -106.4470 269° West 443 510 32,800 1,140 Climbing FlightAware
04:29PM 40.0890 -106.5500 269° West 445 512 33,600 1,020 Climbing FlightAware
04:30PM 40.0880 -106.6550 269° West 439 505 34,200 1,020 Climbing FlightAware
04:31PM 40.0850 -106.9070 269° West 426 490 36,000 720 Climbing FlightAware
04:32PM 40.0840 -107.0160 269° West 427 491 36,000  Level FlightAware
04:33PM 40.0820 -107.1370 269° West 427 491 36,000  Level FlightAware
04:33PM 40.0800 -107.2400 269° West 428 493 36,000  Level FlightAware
04:34PM 40.0790 -107.3480 269° West 429 494 36,000  Level FlightAware
04:35PM 40.0760 -107.5100 269° West 431 496 36,000  Level FlightAware
04:36PM 40.0730 -107.6310 268° West 432 497 36,000  Level FlightAware
04:37PM 40.0710 -107.7450 269° West 433 498 36,000  Level FlightAware
04:37PM 40.0690 -107.8460 269° West 434 499 36,000  Level FlightAware
04:38PM 40.0690 -107.9520 270° West 434 499 36,000  Level FlightAware
04:39PM 40.0740 -108.0720 273° West 436 502 36,000  Level FlightAware
04:40PM 40.0800 -108.2080 273° West 435 501 36,000  Level FlightAware
04:40PM 40.0850 -108.3250 273° West 434 499 36,000  Level FlightAware
04:41PM 40.0900 -108.4360 273° West 433 498 36,000  Level FlightAware
04:42PM 40.0950 -108.5590 273° West 432 497 36,000  Level FlightAware
04:42PM 40.0990 -108.6500 273° West 431 496 36,000  Level FlightAware
04:43PM 40.1040 -108.7710 273° West 429 494 36,000  Level FlightAware
04:44PM 40.1080 -108.8880 273° West 428 493 36,000  Level FlightAware
04:45PM 40.1130 -109.0210 273° West 430 495 36,000  Level FlightAware
04:45PM 40.1170 -109.1270 273° West 431 496 36,000  Level FlightAware
04:46PM 40.1220 -109.2490 273° West 433 498 36,000 -300 Level FlightAware
04:47PM 40.1280 -109.3390 275° West 432 497 35,600 -780 Descending FlightAware
04:48PM 40.1600 -109.4320 294° West 433 498 35,000 -600 Descending FlightAware
04:48PM 40.1910 -109.5160 296° West 433 498 34,800 -1,020 Descending FlightAware
04:49PM 40.2400 -109.6380 298° West 437 503 33,600 -1,020 Descending FlightAware
04:50PM 40.2900 -109.7570 299° West 441 507 33,100 -360 Descending FlightAware
04:51PM 40.3450 -109.8710 302° West 438 504 33,000 -180 Descending FlightAware
04:51PM 40.3920 -109.9630 304° West 441 507 32,900 -540 Descending FlightAware
04:52PM 40.4350 -110.0440 305° West 451 519 32,300 -660 Descending FlightAware
04:53PM 40.4860 -110.1420 304° West 453 521 32,000 -240 Descending FlightAware
04:53PM 40.5330 -110.2310 305° West 452 520 32,000  Level FlightAware
04:54PM 40.5920 -110.3400 306° West 453 521 32,000  Level FlightAware
04:55PM 40.6510 -110.4440 307° West 452 520 32,000 -960 Level FlightAware
04:56PM 40.7060 -110.5700 300° West 450 518 30,400 -1,500 Descending FlightAware
04:56PM 40.6910 -110.6700 259° West 454 522 29,800 -900 Descending FlightAware
04:57PM 40.6400 -110.7550 232° Southwest 459 528 29,200 -1,020 Descending FlightAware
04:58PM 40.5820 -110.8470 230° Southwest 453 521 28,400 -900 Descending FlightAware
04:58PM 40.5260 -110.9350 230° Southwest 442 509 28,000 -1,500 Descending FlightAware
04:59PM 40.4790 -111.0090 230° Southwest 445 512 26,300 -2,760 Descending FlightAware
05:00PM 40.4200 -111.1010 230° Southwest 437 503 24,300 -2,100 Descending FlightAware
05:01PM 40.3470 -111.2150 230° Southwest 428 493 22,900 -900 Descending FlightAware
05:01PM 40.3080 -111.2760 230° Southwest 428 493 22,900  Level FlightAware
05:02PM 40.2530 -111.3620 230° Southwest 428 493 22,900  Level FlightAware
05:03PM 40.2160 -111.4190 230° Southwest 428 493 22,900  Level FlightAware
05:04PM 40.1470 -111.5270 230° Southwest 428 493 22,900 -4,080 Level FlightAware
05:05PM 40.1880 -111.6870 289° West 318 366 14,100 -4,740 Descending FlightAware
05:06PM 40.2230 -111.7480 307° West 317 365 14,000 -120 Descending FlightAware
05:06PM 40.2490 -111.7930 307° West 317 365 14,000 -1,740 Level FlightAware
05:08PM 40.3420 -111.8820 324° Northwest 295 339 10,800 -1,740 Descending FlightAware
05:08PM 40.3760 -111.9160 323° Northwest 295 339 10,800 -1,260 Level FlightAware
05:09PM 40.4370 -111.9190 358° North 297 342 9,400 -1,440 Descending FlightAware
05:09PM 40.4730 -111.9300 347° North 295 339 9,300 -660 Descending FlightAware
05:10PM 40.5230 -111.9440 348° North 277 319 8,700 -1,200 Descending FlightAware
05:10PM 40.5420 -111.9460 355° North 281 323 8,300 -1,740 Descending FlightAware
05:11PM 40.5980 -111.9530 355° North 285 328 7,100 -1,500 Descending FlightAware
05:11PM 40.6360 -111.9570 355° North 249 287 6,500 -1,200 Descending FlightAware
05:12PM 40.6640 -111.9600 355° North 221 254 6,000 -1,020 Descending FlightAware
05:12PM 40.6900 -111.9630 355° North 191 220 5,600 -960 Descending FlightAware
05:13PM 40.7140 -111.9660 355° North 160 184 5,100 -960 Descending FlightAware
05:13PM 40.7250 -111.9680 352° North 156 180 4,900 -720 Descending FlightAware
05:14PM 40.7450 -111.9700 356° North 157 181 4,600 -780 Descending FlightAware
05:14PM 40.7640 -111.9720 355° North 157 181 4,200 -780 Descending FlightAware
05:14PM 40.7680 -111.9720 360° North 156 180 4,200  Level FlightAware
05:22PM 40.7833 -111.9667 North  Level FlightAware Approximate